Time;durP1;ratioP1;P1;durP2;ratioP2;P2;SDS_P1;SDS_P2;PMS_P1;PMS_P2;Temp;Humidity;BMP_temperature;BMP_pressure;BME280_temperature;BME280_humidity;BME280_pressure;Samples;Min_cycle;Max_cycle;Signal;HPM_P1;HPM_P2
2021/08/28 00:01:33;;;;;;;3.20;2.88;;;15.90;99.90;;;;;;5075054;28;20213;-73
2021/08/28 00:04:00;;;;;;;3.63;2.70;;;16.00;99.90;;;;;;5076486;28;20233;-72
2021/08/28 00:06:27;;;;;;;4.25;2.60;;;16.00;99.90;;;;;;5075625;28;20293;-72
2021/08/28 00:08:54;;;;;;;2.95;2.38;;;16.00;99.90;;;;;;5075605;28;20588;-72
2021/08/28 00:11:22;;;;;;;2.60;2.30;;;16.00;99.90;;;;;;5075655;28;20297;-73
2021/08/28 00:13:49;;;;;;;2.30;2.10;;;16.10;99.90;;;;;;5076059;28;20222;-73
2021/08/28 00:16:16;;;;;;;2.97;2.67;;;16.10;99.90;;;;;;5075316;28;20256;-73
2021/08/28 00:18:44;;;;;;;2.85;2.30;;;16.00;99.90;;;;;;5075913;28;20577;-72
2021/08/28 00:21:14;;;;;;;2.17;1.92;;;16.00;99.90;;;;;;5075593;28;20607;-73
2021/08/28 00:23:42;;;;;;;2.17;2.08;;;16.00;99.90;;;;;;5075687;28;20324;-73
2021/08/28 00:26:09;;;;;;;2.42;2.22;;;16.00;99.90;;;;;;5075457;28;20205;-72
2021/08/28 00:28:36;;;;;;;3.13;1.90;;;16.00;99.90;;;;;;5075523;28;20316;-72
2021/08/28 00:31:02;;;;;;;2.72;2.47;;;16.00;99.90;;;;;;5075732;28;20296;-72
2021/08/28 00:33:29;;;;;;;3.70;2.30;;;16.00;99.90;;;;;;5074985;28;20714;-72
2021/08/28 00:35:57;;;;;;;3.05;2.63;;;15.90;99.90;;;;;;5074971;28;20244;-72
2021/08/28 00:38:24;;;;;;;2.50;2.20;;;15.80;99.90;;;;;;5075324;28;20293;-73
2021/08/28 00:40:51;;;;;;;2.10;1.88;;;15.90;99.90;;;;;;5075219;28;20205;-73
2021/08/28 00:43:18;;;;;;;2.80;2.38;;;15.90;99.90;;;;;;5074774;28;20234;-72
2021/08/28 00:45:45;;;;;;;2.58;2.20;;;15.90;99.90;;;;;;5074918;28;20216;-73
2021/08/28 00:48:14;;;;;;;2.33;1.85;;;15.90;99.90;;;;;;5074893;28;20317;-72
2021/08/28 00:50:43;;;;;;;2.70;2.47;;;15.90;99.90;;;;;;5074807;28;20206;-73
2021/08/28 00:53:13;;;;;;;1.70;1.60;;;15.90;99.90;;;;;;5075590;28;20226;-73
2021/08/28 00:55:41;;;;;;;5.40;2.40;;;15.90;99.90;;;;;;5074912;28;20213;-73
2021/08/28 00:58:09;;;;;;;3.42;2.47;;;15.80;99.90;;;;;;5075145;28;20202;-72
2021/08/28 01:00:40;;;;;;;2.67;2.45;;;15.80;99.90;;;;;;5074664;28;20217;-73
2021/08/28 01:03:07;;;;;;;2.83;2.60;;;15.80;99.90;;;;;;5074874;28;20230;-73
2021/08/28 01:05:40;;;;;;;3.50;2.88;;;15.80;99.90;;;;;;5074647;28;20224;-73
2021/08/28 01:08:16;;;;;;;3.03;2.80;;;15.90;99.90;;;;;;5074837;28;20312;-73
2021/08/28 01:10:50;;;;;;;2.83;2.63;;;15.80;99.90;;;;;;5074892;28;20224;-73
2021/08/28 01:13:18;;;;;;;2.15;1.83;;;15.90;99.90;;;;;;5074552;28;20303;-73
2021/08/28 01:15:48;;;;;;;2.53;2.30;;;15.90;99.90;;;;;;5074429;28;20205;-72
2021/08/28 01:18:18;;;;;;;4.47;2.80;;;16.00;99.90;;;;;;5074525;28;20209;-73
2021/08/28 01:20:56;;;;;;;2.35;1.83;;;15.90;99.90;;;;;;5074651;28;20300;-73
2021/08/28 01:23:26;;;;;;;2.25;2.05;;;15.90;99.90;;;;;;5074164;28;20225;-72
2021/08/28 01:25:54;;;;;;;3.08;1.85;;;15.90;99.90;;;;;;5074228;28;20306;-72
2021/08/28 01:28:22;;;;;;;3.20;2.28;;;15.90;99.90;;;;;;5074133;28;20225;-72
2021/08/28 01:30:51;;;;;;;2.50;2.20;;;15.90;99.90;;;;;;5074370;28;20297;-73
2021/08/28 01:33:21;;;;;;;2.90;2.60;;;15.90;99.90;;;;;;5074397;28;20225;-73
2021/08/28 01:35:48;;;;;;;3.47;2.05;;;15.80;99.90;;;;;;5073976;28;20215;-73
2021/08/28 01:38:16;;;;;;;2.08;1.95;;;15.80;99.90;;;;;;5074114;28;20207;-73
2021/08/28 01:40:43;;;;;;;2.63;1.90;;;15.60;99.90;;;;;;5073993;28;20212;-73
2021/08/28 01:43:11;;;;;;;2.80;2.60;;;15.70;99.90;;;;;;5074144;28;20227;-73
2021/08/28 01:45:38;;;;;;;2.40;2.20;;;15.70;99.90;;;;;;5073712;28;20215;-73
2021/08/28 01:48:07;;;;;;;3.05;2.58;;;15.70;99.90;;;;;;5074117;28;20244;-73
2021/08/28 01:50:35;;;;;;;2.53;2.33;;;15.70;99.90;;;;;;5073778;28;20292;-73
2021/08/28 01:53:02;;;;;;;3.00;2.70;;;15.70;99.90;;;;;;5074001;28;20232;-73
2021/08/28 01:55:28;;;;;;;3.55;2.50;;;15.70;99.90;;;;;;5073600;28;20205;-73
2021/08/28 01:57:55;;;;;;;3.20;2.42;;;15.70;99.90;;;;;;5074075;28;20289;-72
2021/08/28 02:00:22;;;;;;;3.15;2.40;;;15.70;99.90;;;;;;5074100;28;20209;-72
2021/08/28 02:02:49;;;;;;;2.90;2.70;;;15.70;99.90;;;;;;5074182;28;20237;-73
2021/08/28 02:05:17;;;;;;;2.55;2.35;;;15.70;99.90;;;;;;5073593;28;20293;-73
2021/08/28 02:07:53;;;;;;;3.75;2.67;;;15.70;99.90;;;;;;5073515;28;20297;-73
2021/08/28 02:10:24;;;;;;;3.80;3.00;;;15.70;99.90;;;;;;5073843;28;20216;-73
2021/08/28 02:12:54;;;;;;;2.72;2.42;;;15.70;99.90;;;;;;5073548;28;20230;-72
2021/08/28 02:15:27;;;;;;;3.47;2.95;;;15.70;99.90;;;;;;5073988;28;20200;-72
2021/08/28 02:17:59;;;;;;;3.40;2.80;;;15.70;99.90;;;;;;5073716;28;20206;-73
2021/08/28 02:20:34;;;;;;;3.75;3.00;;;15.70;99.90;;;;;;5073778;28;20266;-73
2021/08/28 02:23:07;;;;;;;3.78;3.00;;;15.70;99.90;;;;;;5073309;28;20636;-73
2021/08/28 02:25:44;;;;;;;4.53;3.67;;;15.70;99.90;;;;;;5077419;28;20280;-72
2021/08/28 02:28:14;;;;;;;4.43;3.45;;;15.60;99.90;;;;;;5077610;28;20318;-72
2021/08/28 02:30:41;;;;;;;4.07;3.22;;;15.60;99.90;;;;;;5077712;28;20310;-73
2021/08/28 02:33:09;;;;;;;6.50;3.80;;;15.40;99.90;;;;;;5077610;28;20737;-72
2021/08/28 02:35:38;;;;;;;5.70;3.42;;;15.50;99.90;;;;;;5077275;28;20675;-73
2021/08/28 02:38:06;;;;;;;5.35;4.05;;;15.50;99.90;;;;;;5077767;28;20270;-72
2021/08/28 02:40:34;;;;;;;4.07;3.25;;;15.60;99.90;;;;;;5077385;28;20204;-73
2021/08/28 02:43:02;;;;;;;5.00;4.13;;;15.60;99.90;;;;;;5077213;28;20737;-73
2021/08/28 02:45:31;;;;;;;5.20;3.65;;;15.60;99.90;;;;;;5076907;28;20202;-72
2021/08/28 02:47:59;;;;;;;4.45;4.05;;;15.60;99.90;;;;;;5077327;28;20212;-72
2021/08/28 02:50:27;;;;;;;7.95;4.40;;;15.50;99.90;;;;;;5077615;28;20205;-72
2021/08/28 02:52:58;;;;;;;5.43;4.10;;;15.40;99.90;;;;;;5077552;28;20271;-72
2021/08/28 02:55:25;;;;;;;5.28;4.10;;;15.40;99.90;;;;;;5077009;28;20295;-73
2021/08/28 02:57:54;;;;;;;6.22;4.70;;;15.40;99.90;;;;;;5077164;28;20209;-72
2021/08/28 03:00:21;;;;;;;6.00;3.60;;;15.40;99.90;;;;;;5077093;28;20729;-72
2021/08/28 03:02:49;;;;;;;5.53;3.85;;;15.40;99.90;;;;;;5077246;28;20222;-72
2021/08/28 03:05:17;;;;;;;7.55;4.40;;;15.50;99.90;;;;;;5077272;28;20212;-73
2021/08/28 03:07:45;;;;;;;5.85;4.55;;;15.50;99.90;;;;;;5076600;28;20206;-72
2021/08/28 03:10:14;;;;;;;5.90;4.78;;;15.50;99.90;;;;;;5076932;28;20233;-72
2021/08/28 03:12:42;;;;;;;6.32;4.78;;;15.60;99.90;;;;;;5076465;28;20707;-73
2021/08/28 03:15:10;;;;;;;5.28;4.50;;;15.60;99.90;;;;;;5076759;28;20209;-73
2021/08/28 03:17:38;;;;;;;6.63;4.57;;;15.60;99.90;;;;;;5077051;28;20200;-72
2021/08/28 03:20:09;;;;;;;7.07;5.22;;;15.50;99.90;;;;;;5076994;28;20292;-72
2021/08/28 03:22:39;;;;;;;8.30;5.55;;;15.50;99.90;;;;;;5076977;28;20308;-73
2021/08/28 03:25:09;;;;;;;6.05;5.00;;;15.50;99.90;;;;;;5076551;28;20300;-73
2021/08/28 03:27:40;;;;;;;7.25;4.82;;;15.40;99.90;;;;;;5076802;28;20292;-72
2021/08/28 03:30:08;;;;;;;7.43;5.38;;;15.50;99.90;;;;;;5076558;28;20226;-72
2021/08/28 03:32:36;;;;;;;9.25;6.22;;;15.40;99.90;;;;;;5076584;28;20723;-73
2021/08/28 03:35:04;;;;;;;12.95;6.07;;;15.40;99.90;;;;;;5076204;28;20205;-72
2021/08/28 03:37:33;;;;;;;7.80;6.00;;;15.40;99.90;;;;;;5076478;28;20206;-73
2021/08/28 03:40:00;;;;;;;7.53;5.53;;;15.30;99.90;;;;;;5076448;28;20665;-72
2021/08/28 03:42:27;;;;;;;8.27;5.85;;;15.30;99.90;;;;;;5076410;28;20244;-72
2021/08/28 03:44:57;;;;;;;7.90;5.60;;;15.40;99.90;;;;;;5076198;28;20205;-72
2021/08/28 03:47:24;;;;;;;9.65;6.40;;;15.40;99.90;;;;;;5076061;28;20726;-73
2021/08/28 03:49:51;;;;;;;9.13;6.38;;;15.40;99.90;;;;;;5076631;28;20233;-73
2021/08/28 03:52:18;;;;;;;9.93;6.38;;;15.50;99.90;;;;;;5076656;28;20228;-73
2021/08/28 03:54:45;;;;;;;9.02;5.88;;;15.50;99.90;;;;;;5076133;28;20222;-72
2021/08/28 03:57:12;;;;;;;9.50;6.30;;;15.50;99.90;;;;;;5076403;28;20296;-72
2021/08/28 03:59:39;;;;;;;8.93;5.90;;;15.50;99.90;;;;;;5076320;28;20295;-72
2021/08/28 04:02:07;;;;;;;9.00;6.00;;;15.60;99.90;;;;;;5075788;28;20226;-73
2021/08/28 04:04:34;;;;;;;8.57;5.72;;;15.60;99.90;;;;;;5076042;28;20296;-72
2021/08/28 04:07:01;;;;;;;8.60;5.82;;;15.50;99.90;;;;;;5075762;28;20686;-72
2021/08/28 04:09:28;;;;;;;9.68;6.15;;;15.40;99.90;;;;;;5076045;28;20312;-73
2021/08/28 04:11:54;;;;;;;9.18;6.45;;;15.40;99.90;;;;;;5076073;28;20625;-73
2021/08/28 04:14:21;;;;;;;10.23;7.00;;;15.40;99.90;;;;;;5075721;28;20206;-73
2021/08/28 04:16:48;;;;;;;10.18;5.97;;;15.30;99.90;;;;;;5075241;28;20248;-72
2021/08/28 04:19:16;;;;;;;14.48;7.72;;;15.30;99.90;;;;;;5075611;28;20201;-73
2021/08/28 04:21:43;;;;;;;11.52;6.30;;;15.20;99.90;;;;;;5075610;28;20308;-73
2021/08/28 04:24:10;;;;;;;10.38;6.85;;;15.30;99.90;;;;;;5076118;28;20234;-73
2021/08/28 04:26:37;;;;;;;10.20;6.97;;;15.30;99.90;;;;;;5075058;28;20312;-72
2021/08/28 04:29:04;;;;;;;9.23;7.03;;;15.30;99.90;;;;;;5075389;28;20315;-73
2021/08/28 04:31:31;;;;;;;11.35;7.60;;;15.30;99.90;;;;;;5075355;28;20281;-73
2021/08/28 04:33:57;;;;;;;9.10;6.53;;;15.40;99.90;;;;;;5075181;28;20312;-73
2021/08/28 04:36:25;;;;;;;11.18;6.40;;;15.40;99.90;;;;;;5075392;28;20297;-72
2021/08/28 04:38:52;;;;;;;11.00;8.27;;;15.40;99.90;;;;;;5075575;28;20562;-73
2021/08/28 04:41:19;;;;;;;10.52;7.35;;;15.50;99.90;;;;;;5075266;28;20687;-73
2021/08/28 04:43:46;;;;;;;11.70;7.72;;;15.50;99.90;;;;;;5075210;28;20313;-73
2021/08/28 04:46:13;;;;;;;9.65;6.15;;;15.50;99.90;;;;;;5074802;28;20221;-72
2021/08/28 04:48:40;;;;;;;8.15;6.55;;;15.40;99.90;;;;;;5074889;28;20317;-72
2021/08/28 04:51:06;;;;;;;9.57;6.95;;;15.40;99.90;;;;;;5075441;28;20296;-72
2021/08/28 04:53:35;;;;;;;9.68;6.15;;;15.30;99.90;;;;;;5075227;28;20315;-73
2021/08/28 04:56:01;;;;;;;11.00;7.30;;;15.30;99.90;;;;;;5074431;28;20299;-73
2021/08/28 04:58:28;;;;;;;12.32;7.20;;;15.30;99.90;;;;;;5074884;28;20204;-72
2021/08/28 05:00:55;;;;;;;10.35;7.03;;;15.20;99.90;;;;;;5074890;28;20211;-72
2021/08/28 05:03:22;;;;;;;12.60;7.60;;;15.10;99.90;;;;;;5074816;28;20227;-72
2021/08/28 05:05:53;;;;;;;10.02;6.80;;;15.20;99.90;;;;;;5074505;28;20204;-73
2021/08/28 05:08:20;;;;;;;10.93;7.65;;;15.10;99.90;;;;;;5075009;28;20207;-73
2021/08/28 05:10:49;;;;;;;11.43;7.93;;;15.10;99.90;;;;;;5074318;28;20228;-73
2021/08/28 05:13:16;;;;;;;9.52;7.45;;;15.00;99.90;;;;;;5074721;28;20220;-73
2021/08/28 05:15:43;;;;;;;11.05;8.35;;;15.10;99.90;;;;;;5074175;28;20327;-73
2021/08/28 05:18:10;;;;;;;10.95;7.75;;;15.10;99.90;;;;;;5074753;28;20202;-72
2021/08/28 05:20:36;;;;;;;10.60;6.97;;;15.20;99.90;;;;;;5074771;28;20749;-73
2021/08/28 05:23:03;;;;;;;12.02;8.35;;;15.10;99.90;;;;;;5074121;28;20773;-72
2021/08/28 05:25:30;;;;;;;12.55;8.10;;;15.10;99.90;;;;;;5074222;28;20580;-72
2021/08/28 05:27:58;;;;;;;14.75;8.45;;;15.10;99.90;;;;;;5074739;28;20204;-73
2021/08/28 05:30:25;;;;;;;12.82;8.77;;;15.10;99.90;;;;;;5074392;28;20316;-73
2021/08/28 05:32:52;;;;;;;14.25;8.13;;;15.10;99.90;;;;;;5074032;28;20250;-73
2021/08/28 05:35:19;;;;;;;11.75;7.82;;;15.00;99.90;;;;;;5074481;28;20294;-73
2021/08/28 05:37:47;;;;;;;11.23;7.78;;;15.10;99.90;;;;;;5074118;28;20387;-72
2021/08/28 05:40:18;;;;;;;12.32;8.35;;;15.10;99.90;;;;;;5074000;28;20659;-72
2021/08/28 05:42:46;;;;;;;11.73;8.02;;;15.10;99.90;;;;;;5073989;28;20240;-72
2021/08/28 05:45:14;;;;;;;11.10;7.75;;;15.20;99.90;;;;;;5074276;28;20571;-73
2021/08/28 05:47:41;;;;;;;8.60;6.95;;;15.30;99.90;;;;;;5074310;28;20567;-73
2021/08/28 05:50:09;;;;;;;11.35;8.13;;;15.30;99.90;;;;;;5073816;28;20698;-73
2021/08/28 05:52:36;;;;;;;11.85;7.85;;;15.30;99.90;;;;;;5074015;28;20237;-73
2021/08/28 05:55:02;;;;;;;9.23;6.65;;;15.30;99.90;;;;;;5073640;28;20205;-72
2021/08/28 05:57:31;;;;;;;10.38;7.43;;;15.40;99.90;;;;;;5074087;28;20205;-72
2021/08/28 05:59:58;;;;;;;10.15;7.07;;;15.40;99.90;;;;;;5073093;28;20566;-72
2021/08/28 06:02:26;;;;;;;11.68;8.15;;;15.30;99.90;;;;;;5074110;28;20313;-72
2021/08/28 06:04:53;;;;;;;10.20;6.65;;;15.30;99.90;;;;;;5073540;28;20295;-73
2021/08/28 06:07:20;;;;;;;11.65;6.70;;;15.10;99.90;;;;;;5073663;28;20205;-72
2021/08/28 06:09:47;;;;;;;10.98;7.63;;;15.20;99.90;;;;;;5073629;28;20235;-72
2021/08/28 06:12:14;;;;;;;9.75;6.70;;;15.20;99.90;;;;;;5073731;28;20315;-72
2021/08/28 06:14:40;;;;;;;7.55;6.18;;;15.20;99.90;;;;;;5073999;28;20675;-72
2021/08/28 06:17:07;;;;;;;8.90;7.10;;;15.30;99.90;;;;;;5073855;28;20201;-73
2021/08/28 06:19:35;;;;;;;10.52;7.38;;;15.30;99.90;;;;;;5073415;28;20751;-72
2021/08/28 06:22:02;;;;;;;10.77;7.13;;;15.30;99.90;;;;;;5073374;28;20222;-72
2021/08/28 06:24:29;;;;;;;7.60;6.65;;;15.50;99.90;;;;;;5073995;28;20202;-72
2021/08/28 06:26:56;;;;;;;7.60;6.13;;;15.50;99.90;;;;;;5073722;28;20233;-72
2021/08/28 06:29:23;;;;;;;8.65;5.95;;;15.60;99.90;;;;;;5073722;28;20773;-72
2021/08/28 06:31:50;;;;;;;12.50;6.53;;;15.60;99.90;;;;;;5073161;28;20208;-72
2021/08/28 06:34:16;;;;;;;8.90;6.53;;;15.70;99.90;;;;;;5073677;28;20604;-73
2021/08/28 06:36:45;;;;;;;8.05;6.18;;;15.60;99.90;;;;;;5073299;28;20286;-72
2021/08/28 06:39:11;;;;;;;12.10;7.80;;;15.50;99.90;;;;;;5073704;28;20316;-72
2021/08/28 06:41:38;;;;;;;8.63;6.18;;;15.40;99.90;;;;;;5073148;28;20220;-73
2021/08/28 06:44:06;;;;;;;9.85;6.60;;;15.50;99.90;;;;;;5073759;28;20711;-72
2021/08/28 06:46:32;;;;;;;9.82;5.80;;;15.50;99.90;;;;;;5073187;28;20207;-73
2021/08/28 06:48:59;;;;;;;7.10;5.50;;;15.50;99.90;;;;;;5073373;28;20202;-72
2021/08/28 06:51:26;;;;;;;7.85;6.00;;;15.60;99.90;;;;;;5073361;28;20206;-72
2021/08/28 06:53:54;;;;;;;7.05;4.88;;;15.60;99.90;;;;;;5073685;28;20320;-72
2021/08/28 06:56:21;;;;;;;6.47;5.45;;;15.60;99.90;;;;;;5072855;28;20215;-72
2021/08/28 06:58:48;;;;;;;7.78;5.80;;;15.60;99.90;;;;;;5073604;28;20210;-72
2021/08/28 07:01:15;;;;;;;8.02;6.05;;;15.50;99.90;;;;;;5073283;28;20238;-72
2021/08/28 07:03:42;;;;;;;8.80;6.55;;;15.50;99.90;;;;;;5073423;28;20225;-72
2021/08/28 07:06:09;;;;;;;9.13;6.40;;;15.60;99.90;;;;;;5073234;28;20203;-72
2021/08/28 07:08:36;;;;;;;8.73;5.43;;;15.50;99.90;;;;;;5073021;28;20201;-72
2021/08/28 07:11:04;;;;;;;7.38;6.15;;;15.60;99.90;;;;;;5075939;28;20583;-72
2021/08/28 07:13:31;;;;;;;8.73;5.95;;;15.70;99.90;;;;;;5076578;28;20275;-72
2021/08/28 07:15:57;;;;;;;8.23;6.50;;;15.80;99.90;;;;;;5076742;28;20212;-72
2021/08/28 07:18:24;;;;;;;7.60;5.95;;;15.80;99.90;;;;;;5076952;28;20617;-72
2021/08/28 07:20:52;;;;;;;10.50;7.10;;;15.90;99.90;;;;;;5076960;28;20202;-72
2021/08/28 07:23:19;;;;;;;8.07;6.35;;;16.00;99.90;;;;;;5076837;28;20226;-72
2021/08/28 07:25:46;;;;;;;7.20;5.80;;;15.90;99.90;;;;;;5076798;28;20292;-72
2021/08/28 07:28:14;;;;;;;9.13;6.15;;;15.60;99.90;;;;;;5076360;28;20215;-72
2021/08/28 07:30:41;;;;;;;7.30;5.93;;;15.40;99.90;;;;;;5076552;28;20548;-72
2021/08/28 07:33:08;;;;;;;9.95;5.80;;;15.30;99.90;;;;;;5076805;28;20224;-72
2021/08/28 07:35:35;;;;;;;7.25;4.95;;;15.20;99.90;;;;;;5076278;28;20205;-72
2021/08/28 07:38:02;;;;;;;7.90;5.45;;;15.20;99.90;;;;;;5076757;28;20295;-72
2021/08/28 07:40:29;;;;;;;5.47;4.88;;;15.20;99.90;;;;;;5076247;28;20201;-72
2021/08/28 07:42:58;;;;;;;5.68;4.95;;;15.20;99.90;;;;;;5076032;28;20621;-72
2021/08/28 07:45:28;;;;;;;6.03;5.18;;;15.20;99.90;;;;;;5075854;28;20675;-72
2021/08/28 07:47:55;;;;;;;5.53;4.72;;;15.20;99.90;;;;;;5076429;28;20214;-72
2021/08/28 07:50:22;;;;;;;8.50;4.43;;;15.40;99.90;;;;;;5076377;28;20229;-72
2021/08/28 07:52:49;;;;;;;6.13;4.95;;;15.50;99.90;;;;;;5076430;28;20230;-72
2021/08/28 07:55:16;;;;;;;5.68;4.78;;;15.50;99.90;;;;;;5075969;28;20607;-72
2021/08/28 07:57:44;;;;;;;5.20;4.30;;;15.50;99.90;;;;;;5075856;28;20609;-72
2021/08/28 08:00:13;;;;;;;5.90;4.80;;;15.60;99.90;;;;;;5075987;28;20681;-72
2021/08/28 08:02:41;;;;;;;5.95;4.50;;;15.50;99.90;;;;;;5075651;28;20655;-72
2021/08/28 08:05:09;;;;;;;7.03;4.55;;;15.60;99.90;;;;;;5076212;28;20295;-72
2021/08/28 08:07:36;;;;;;;3.83;3.00;;;15.70;99.90;;;;;;5076133;28;20211;-71
2021/08/28 08:10:02;;;;;;;5.25;4.05;;;15.70;99.90;;;;;;5075748;28;20282;-72
2021/08/28 08:12:29;;;;;;;6.18;4.32;;;15.70;99.90;;;;;;5075818;28;20312;-72
2021/08/28 08:14:56;;;;;;;7.50;4.63;;;15.70;99.90;;;;;;5075933;28;20292;-72
2021/08/28 08:17:23;;;;;;;4.22;3.80;;;15.80;99.90;;;;;;5075985;28;20297;-72
2021/08/28 08:19:51;;;;;;;4.10;3.67;;;15.90;99.90;;;;;;5076036;28;20208;-72
2021/08/28 08:22:18;;;;;;;5.80;3.50;;;16.00;99.90;;;;;;5074698;28;20316;-72
2021/08/28 08:24:45;;;;;;;3.92;3.20;;;15.90;99.90;;;;;;5075455;28;20543;-73
2021/08/28 08:27:13;;;;;;;3.40;3.03;;;16.00;99.90;;;;;;5075676;28;20206;-72
2021/08/28 08:29:40;;;;;;;5.30;3.30;;;16.20;99.90;;;;;;5075592;28;20205;-72
2021/08/28 08:32:07;;;;;;;4.40;3.40;;;16.30;99.90;;;;;;5075713;28;20646;-72
2021/08/28 08:34:34;;;;;;;3.78;3.42;;;16.30;99.90;;;;;;5075664;28;20653;-72
2021/08/28 08:37:02;;;;;;;5.22;3.70;;;16.40;99.90;;;;;;5075133;28;20206;-73
2021/08/28 08:39:29;;;;;;;5.40;3.10;;;16.40;99.90;;;;;;5075379;28;20202;-72
2021/08/28 08:41:57;;;;;;;3.38;3.05;;;16.40;99.90;;;;;;5074798;28;20231;-73
2021/08/28 08:44:24;;;;;;;2.85;2.58;;;16.30;99.90;;;;;;5075669;28;20206;-72
2021/08/28 08:46:52;;;;;;;3.17;2.50;;;16.40;99.90;;;;;;5075313;28;20293;-72
2021/08/28 08:49:20;;;;;;;4.45;2.90;;;16.50;99.90;;;;;;5074963;28;20199;-72
2021/08/28 08:51:47;;;;;;;4.78;2.65;;;16.70;99.90;;;;;;5074853;28;20325;-73
2021/08/28 08:54:15;;;;;;;3.08;2.78;;;16.80;99.90;;;;;;5075270;28;20530;-73
2021/08/28 08:56:42;;;;;;;2.90;2.67;;;16.90;99.90;;;;;;5074964;28;20206;-73
2021/08/28 08:59:09;;;;;;;3.35;3.05;;;16.80;99.90;;;;;;5075167;28;20584;-73
2021/08/28 09:01:36;;;;;;;3.80;3.20;;;16.70;99.90;;;;;;5075181;28;20195;-73
2021/08/28 09:04:03;;;;;;;3.55;2.80;;;16.50;99.90;;;;;;5074812;28;20314;-72
2021/08/28 09:06:30;;;;;;;3.78;2.88;;;16.40;99.90;;;;;;5074432;28;20244;-72
2021/08/28 09:08:56;;;;;;;3.00;2.70;;;16.30;99.90;;;;;;5074393;28;20714;-73
2021/08/28 09:11:26;;;;;;;4.25;3.17;;;16.30;99.90;;;;;;5074795;28;20245;-72
2021/08/28 09:14:16;;;;;;;3.00;2.80;;;16.30;99.90;;;;;;5081852;28;20702;-73
2021/08/28 09:16:44;;;;;;;3.25;2.97;;;16.30;99.90;;;;;;5073074;28;20202;-73
2021/08/28 09:19:11;;;;;;;3.35;3.05;;;16.30;99.90;;;;;;5073393;28;20205;-72
2021/08/28 09:21:37;;;;;;;3.20;2.90;;;16.20;99.90;;;;;;5073119;28;20297;-71
2021/08/28 09:24:06;;;;;;;3.75;3.45;;;16.10;99.90;;;;;;5072929;28;20206;-72
2021/08/28 09:26:37;;;;;;;3.75;2.92;;;16.10;99.90;;;;;;5072421;28;20290;-73
2021/08/28 09:29:07;;;;;;;3.10;2.78;;;16.20;99.90;;;;;;5072970;28;20216;-72
2021/08/28 09:31:45;;;;;;;3.80;2.85;;;16.30;99.90;;;;;;5072950;28;20319;-73
2021/08/28 09:34:22;;;;;;;3.05;2.78;;;16.30;99.90;;;;;;5072749;28;20201;-72
2021/08/28 09:36:58;;;;;;;2.55;2.35;;;16.10;99.90;;;;;;5072543;28;20686;-73
2021/08/28 09:39:38;;;;;;;2.40;2.10;;;16.20;99.90;;;;;;5073585;28;20205;-74
2021/08/28 09:42:07;;;;;;;2.70;2.50;;;16.30;99.90;;;;;;5073092;28;20252;-76
2021/08/28 09:44:37;;;;;;;2.10;2.00;;;16.20;99.90;;;;;;5072779;28;20297;-76
2021/08/28 09:47:13;;;;;;;2.92;2.70;;;16.30;99.90;;;;;;5072361;28;20311;-77
2021/08/28 09:49:41;;;;;;;2.20;2.00;;;16.30;99.90;;;;;;5072345;28;20200;-76
2021/08/28 09:52:11;;;;;;;2.90;2.67;;;16.40;99.90;;;;;;5072795;28;20233;-76
2021/08/28 09:54:39;;;;;;;3.17;2.90;;;16.50;99.90;;;;;;5073521;28;20299;-76
2021/08/28 09:57:07;;;;;;;2.50;2.30;;;16.60;99.90;;;;;;5073277;28;20203;-77
2021/08/28 09:59:34;;;;;;;2.25;2.05;;;16.60;99.90;;;;;;5072498;28;20300;-76
2021/08/28 10:02:04;;;;;;;2.83;2.30;;;16.40;99.90;;;;;;5072330;28;20249;-76
2021/08/28 10:04:47;;;;;;;3.00;2.70;;;16.20;99.90;;;;;;5072721;28;20207;-77
2021/08/28 10:07:22;;;;;;;2.63;2.20;;;16.10;99.90;;;;;;5072191;28;20674;-77
2021/08/28 10:09:51;;;;;;;2.55;2.30;;;16.00;99.90;;;;;;5072124;28;20296;-77
2021/08/28 10:12:20;;;;;;;3.00;2.70;;;15.90;99.90;;;;;;5072650;28;20229;-78
2021/08/28 10:14:48;;;;;;;5.05;2.65;;;15.80;99.90;;;;;;5072066;28;20216;-77
2021/08/28 10:17:17;;;;;;;3.13;2.60;;;15.70;99.90;;;;;;5072215;28;20206;-77
2021/08/28 10:19:45;;;;;;;2.35;2.15;;;15.70;99.90;;;;;;5076277;28;20299;-78
2021/08/28 10:22:13;;;;;;;2.50;2.15;;;15.80;99.90;;;;;;5084541;28;20245;-78
2021/08/28 10:24:44;;;;;;;2.42;2.22;;;15.80;99.90;;;;;;5077306;28;20702;-76
2021/08/28 10:27:12;;;;;;;2.60;2.35;;;15.90;99.90;;;;;;5075625;28;20259;-76
2021/08/28 10:29:42;;;;;;;3.25;2.92;;;15.90;99.90;;;;;;5075935;28;20228;-76
2021/08/28 10:32:09;;;;;;;3.22;2.92;;;15.70;99.90;;;;;;5075773;28;20233;-76
2021/08/28 10:34:36;;;;;;;3.42;2.60;;;15.70;99.90;;;;;;5073205;28;20211;-77
2021/08/28 10:37:03;;;;;;;2.72;2.53;;;15.50;99.90;;;;;;5074197;28;20204;-76
2021/08/28 10:39:31;;;;;;;2.42;2.20;;;15.40;99.90;;;;;;5072199;28;20287;-75
2021/08/28 10:41:58;;;;;;;2.60;2.33;;;15.30;99.90;;;;;;5072206;28;20300;-75
2021/08/28 10:44:25;;;;;;;3.22;2.90;;;15.30;99.90;;;;;;5073213;28;20662;-76
2021/08/28 10:46:53;;;;;;;4.07;3.10;;;15.20;99.90;;;;;;5076631;28;20213;-75
2021/08/28 10:49:22;;;;;;;3.00;2.70;;;15.30;99.90;;;;;;5077051;28;20635;-75
2021/08/28 10:51:55;;;;;;;3.35;2.45;;;15.30;99.90;;;;;;5076332;28;20314;-75
2021/08/28 10:54:28;;;;;;;2.70;2.50;;;15.70;99.90;;;;;;5077676;28;20662;-76
2021/08/28 10:56:57;;;;;;;2.53;2.13;;;16.10;99.90;;;;;;5077138;28;20292;-75
2021/08/28 10:59:27;;;;;;;2.38;2.17;;;16.40;99.90;;;;;;5077162;28;20301;-76
2021/08/28 11:01:59;;;;;;;2.45;2.25;;;16.60;99.90;;;;;;5076480;28;20203;-76
2021/08/28 11:04:40;;;;;;;2.60;2.40;;;16.80;99.90;;;;;;5076454;28;20202;-76
2021/08/28 11:07:27;;;;;;;2.08;1.85;;;16.90;99.90;;;;;;5076517;28;20206;-76
2021/08/28 11:10:14;;;;;;;1.75;1.42;;;17.10;99.90;;;;;;5076472;28;20298;-75
2021/08/28 11:12:46;;;;;;;1.95;1.75;;;17.90;99.90;;;;;;5076050;28;20226;-75
2021/08/28 11:15:52;;;;;;;2.40;1.90;;;18.60;99.90;;;;;;5075660;28;20208;-75
2021/08/28 11:18:45;;;;;;;1.73;1.63;;;19.30;99.90;;;;;;5075896;28;20449;-75
2021/08/28 11:21:14;;;;;;;1.70;1.60;;;19.10;99.90;;;;;;5076213;28;20565;-75
2021/08/28 11:23:43;;;;;;;1.73;1.63;;;19.30;99.90;;;;;;5076105;28;20947;-74
2021/08/28 11:26:10;;;;;;;2.10;2.00;;;19.50;99.90;;;;;;5075890;28;20473;-75
2021/08/28 11:28:39;;;;;;;1.60;1.50;;;19.30;99.90;;;;;;5075399;28;20939;-75
2021/08/28 11:31:06;;;;;;;1.57;1.47;;;19.20;99.90;;;;;;5076556;28;20570;-78
2021/08/28 11:33:34;;;;;;;1.50;1.40;;;19.30;99.90;;;;;;5080559;28;21090;-76
2021/08/28 11:36:05;;;;;;;1.30;1.20;;;19.20;99.90;;;;;;5079109;28;20454;-77
2021/08/28 11:38:38;;;;;;;1.40;1.30;;;19.10;99.90;;;;;;5079849;28;20449;-77
2021/08/28 11:41:07;;;;;;;1.50;1.40;;;19.10;99.90;;;;;;5079956;28;20485;-78
2021/08/28 11:43:35;;;;;;;1.40;1.30;;;18.90;99.90;;;;;;5078598;28;20732;-80
2021/08/28 11:46:04;;;;;;;1.80;1.70;;;18.70;99.90;;;;;;5080976;28;20484;-79
2021/08/28 11:48:34;;;;;;;1.60;1.50;;;18.60;99.90;;;;;;5081485;28;20289;-78
2021/08/28 11:51:00;;;;;;;1.30;1.20;;;18.40;99.90;;;;;;5080895;28;20305;-78
2021/08/28 11:53:30;;;;;;;1.60;1.50;;;18.20;99.90;;;;;;5077434;28;20653;-78
2021/08/28 11:56:11;;;;;;;1.48;1.38;;;18.20;99.90;;;;;;5076098;28;20286;-78
2021/08/28 11:58:56;;;;;;;1.95;1.77;;;18.10;99.90;;;;;;5075501;28;20207;-76
2021/08/28 12:01:27;;;;;;;1.50;1.30;;;18.10;99.90;;;;;;5075685;28;20605;-77
2021/08/28 12:03:54;;;;;;;1.70;1.60;;;18.00;99.90;;;;;;5077774;28;20761;-78
2021/08/28 12:06:24;;;;;;;1.45;1.35;;;18.10;99.90;;;;;;5075860;28;20272;-77
2021/08/28 12:08:52;;;;;;;1.40;1.30;;;18.10;99.90;;;;;;5077589;28;20224;-79
2021/08/28 12:11:19;;;;;;;1.73;1.63;;;18.20;99.90;;;;;;5078773;28;20223;-77
2021/08/28 12:13:47;;;;;;;1.50;1.40;;;18.20;99.90;;;;;;5077593;28;20227;-77
2021/08/28 12:16:23;;;;;;;1.30;1.15;;;18.40;99.90;;;;;;5074673;28;20653;-76
2021/08/28 12:19:08;;;;;;;1.00;1.00;;;18.50;99.90;;;;;;5074207;28;20198;-76
2021/08/28 12:21:38;;;;;;;1.33;1.23;;;18.50;99.90;;;;;;5073890;28;20209;-75
2021/08/28 12:24:19;;;;;;;1.30;1.20;;;18.70;99.90;;;;;;5074103;28;20590;-75
2021/08/28 12:26:51;;;;;;;1.30;1.20;;;18.60;99.90;;;;;;5073851;28;20199;-75
2021/08/28 12:29:22;;;;;;;1.35;1.25;;;18.30;99.90;;;;;;5074481;28;20661;-75
2021/08/28 12:31:57;;;;;;;1.02;1.02;;;18.40;99.90;;;;;;5073733;28;20620;-75
2021/08/28 12:34:25;;;;;;;1.30;1.20;;;18.60;99.90;;;;;;5073693;28;20904;-76
2021/08/28 12:36:52;;;;;;;0.90;0.90;;;19.00;99.90;;;;;;5073788;28;20445;-75
2021/08/28 12:39:21;;;;;;;0.80;0.80;;;19.00;99.90;;;;;;5073798;28;20294;-75
2021/08/28 12:41:48;;;;;;;1.03;1.00;;;19.10;99.90;;;;;;5073550;28;20212;-75
2021/08/28 12:44:17;;;;;;;1.10;1.10;;;19.20;99.90;;;;;;5073581;28;20532;-75
2021/08/28 12:46:46;;;;;;;0.87;0.87;;;19.30;99.50;;;;;;5073189;28;20490;-76
2021/08/28 12:49:19;;;;;;;0.90;0.90;;;19.30;99.90;;;;;;5073754;28;20529;-76
2021/08/28 12:51:51;;;;;;;1.20;1.10;;;19.30;99.70;;;;;;5073793;28;20565;-74
2021/08/28 12:54:22;;;;;;;1.00;1.00;;;19.10;99.90;;;;;;5073401;28;20541;-75